Dawson, Illinois
Current Conditions -  °F | °C
As of 6:52 AM on Friday 19 Dec 2014 (Local Time) from KSPI Reporting Station
Clear Clear  
Wind Chill: 16°   Ceiling: Unl
Heat Index: 23°   Visibility: 9mi
Dew Point: 20°   Wind: 6mph
Humidity: 88%   Direction: 50°NE
Pressure: 30.31"   Gusts: NA
Location:  39.85°N, 89.46°W
Report Text: KSPI 191252Z 05005KT 9SM CLR M05/M07 A3031 RMK AO2 SLP270 T10501067
Loading
Personal Weather Stations






























Interactive Weather Map New forecast layout! Learn more

10-Day Weather Forecast

Advertisements
Track Severe Weather on mobile